McCondy, Mississippi
Current Conditions -  °F | °C
As of 12:35 PM on Monday 26 Jan 2015 (Local Time) from KM40 Reporting Station
Scattered Clouds Scattered Clouds  
Wind Chill: 46°   Ceiling: Unl
Heat Index: 48°   Visibility: 9mi
Dew Point: 34°   Wind: 6mph
Humidity: 57%   Direction: 290°WNW
Pressure: 30.08"   Gusts: NA
Location:  33.82°N, 88.84°W
Report Text: KM40 261835Z AUTO 29005KT 9SM SCT031 09/01 A3008 RMK AO2
Loading
Personal Weather Stations






























Interactive Weather Map New forecast layout! Learn more

10-Day Weather Forecast

Advertisements
Track Severe Weather on mobile